createdAt,value
2017-11-10T00:01:40.736Z,29.90
2017-11-10T00:04:08.408Z,27.58
2017-11-10T00:06:35.872Z,26.80
2017-11-10T00:09:03.351Z,27.33
2017-11-10T00:11:30.812Z,22.40
2017-11-10T00:13:59.060Z,26.85
2017-11-10T00:16:26.559Z,26.08
2017-11-10T00:18:54.047Z,25.60
2017-11-10T00:21:21.506Z,26.65
2017-11-10T00:23:48.969Z,22.87
2017-11-10T00:26:16.510Z,27.70
2017-11-10T00:28:44.804Z,25.15
2017-11-10T00:31:12.277Z,28.85
2017-11-10T00:33:39.742Z,26.15
2017-11-10T00:36:07.221Z,23.50
2017-11-10T00:38:34.688Z,23.20
2017-11-10T00:41:02.925Z,24.00
2017-11-10T00:43:30.385Z,22.67
2017-11-10T00:45:57.852Z,23.05
2017-11-10T00:48:25.323Z,21.92
2017-11-10T00:50:52.789Z,24.95
2017-11-10T00:53:21.084Z,21.45
2017-11-10T00:55:49.320Z,24.15
2017-11-10T00:58:16.783Z,24.98
2017-11-10T01:00:44.255Z,26.17
2017-11-10T01:03:11.731Z,22.87
2017-11-10T01:05:39.965Z,23.83
2017-11-10T01:08:10.237Z,21.87
2017-11-10T01:10:37.702Z,25.15
2017-11-10T01:13:05.162Z,28.35
2017-11-10T01:15:32.633Z,28.50
2017-11-10T01:18:00.105Z,22.40
2017-11-10T01:20:27.575Z,26.40
2017-11-10T01:22:55.040Z,20.92
2017-11-10T01:25:22.525Z,24.20
2017-11-10T01:27:50.749Z,25.30
2017-11-10T01:30:18.213Z,23.85
2017-11-10T01:32:45.679Z,23.40
2017-11-10T01:35:13.157Z,24.63
2017-11-10T01:37:40.616Z,21.62
2017-11-10T01:40:08.084Z,21.58
2017-11-10T01:42:35.542Z,23.50
2017-11-10T01:45:03.004Z,22.35
2017-11-10T01:47:30.469Z,21.77
2017-11-10T01:50:03.696Z,25.75
2017-11-10T01:52:31.184Z,26.67
2017-11-10T01:54:58.649Z,20.92
2017-11-10T01:57:26.161Z,23.38
2017-11-10T01:59:53.625Z,23.38
2017-11-10T02:02:21.097Z,21.92
2017-11-10T02:04:48.566Z,25.52
2017-11-10T02:07:16.028Z,23.17
2017-11-10T02:09:43.494Z,26.75
2017-11-10T02:12:10.969Z,23.60
2017-11-10T02:14:38.431Z,23.75
2017-11-10T02:17:05.928Z,25.48
2017-11-10T02:19:33.400Z,21.08
2017-11-10T02:22:03.781Z,23.65
2017-11-10T02:24:31.242Z,24.50
2017-11-10T02:26:58.712Z,23.30
2017-11-10T02:29:26.936Z,23.52
2017-11-10T02:31:54.405Z,25.35
2017-11-10T02:34:21.865Z,22.20
2017-11-10T02:36:49.348Z,24.55
2017-11-10T02:39:17.579Z,20.12
2017-11-10T02:41:46.888Z,21.90
2017-11-10T02:44:14.345Z,25.35
2017-11-10T02:46:41.845Z,22.95
2017-11-10T02:49:09.304Z,22.65
2017-11-10T02:51:36.789Z,21.33
2017-11-10T02:54:04.256Z,22.77
2017-11-10T02:56:31.730Z,21.92
2017-11-10T02:58:59.196Z,21.10
2017-11-10T03:01:26.667Z,22.62
2017-11-10T03:03:54.136Z,23.35
2017-11-10T03:06:21.641Z,22.98
2017-11-10T03:08:49.113Z,25.58
2017-11-10T03:11:16.586Z,23.83
2017-11-10T03:13:44.048Z,20.70
2017-11-10T03:16:11.531Z,21.95
2017-11-10T03:18:38.997Z,21.73
2017-11-10T03:21:06.477Z,22.30
2017-11-10T03:23:34.740Z,23.50
2017-11-10T03:26:02.200Z,26.80
2017-11-10T03:28:29.670Z,20.70
2017-11-10T03:30:57.905Z,23.55
2017-11-10T03:33:25.378Z,24.58
2017-11-10T03:35:52.868Z,24.55
2017-11-10T03:38:21.092Z,19.25
2017-11-10T03:40:48.562Z,21.95
2017-11-10T03:43:16.025Z,24.10
2017-11-10T03:45:43.503Z,22.52
2017-11-10T03:48:10.960Z,21.80
2017-11-10T03:50:38.441Z,24.65
2017-11-10T03:53:05.919Z,21.27
2017-11-10T03:55:33.409Z,24.73
2017-11-10T03:58:00.876Z,22.58
2017-11-10T04:00:28.354Z,23.15
2017-11-10T04:02:55.821Z,21.75
2017-11-10T04:05:24.077Z,21.02
2017-11-10T04:07:51.550Z,18.40
2017-11-10T04:10:19.027Z,21.92
2017-11-10T04:12:46.529Z,20.23
2017-11-10T04:15:14.000Z,21.73
2017-11-10T04:17:41.480Z,21.23
2017-11-10T04:20:08.947Z,18.65
2017-11-10T04:22:37.260Z,17.70
2017-11-10T04:25:04.725Z,23.95
2017-11-10T04:27:32.205Z,19.35
2017-11-10T04:29:59.677Z,18.70
2017-11-10T04:32:27.171Z,20.35
2017-11-10T04:34:55.392Z,29.70
2017-11-10T04:37:22.869Z,19.95
2017-11-10T04:39:50.351Z,20.67
2017-11-10T04:42:18.589Z,17.60
2017-11-10T04:44:46.056Z,18.37
2017-11-10T04:47:13.538Z,20.37
2017-11-10T04:49:41.003Z,18.17
2017-11-10T04:52:09.270Z,19.25
2017-11-10T04:54:36.738Z,18.17
2017-11-10T04:57:04.982Z,19.52
2017-11-10T04:59:32.450Z,17.83
2017-11-10T05:01:59.921Z,17.85
2017-11-10T05:04:27.476Z,17.25
2017-11-10T05:06:54.953Z,15.82
2017-11-10T05:09:23.189Z,17.33
2017-11-10T05:11:50.659Z,18.87
2017-11-10T05:14:18.125Z,18.48
2017-11-10T05:16:45.599Z,15.75
2017-11-10T05:19:13.070Z,16.15
2017-11-10T05:21:41.309Z,15.68
2017-11-10T05:24:08.772Z,20.65
2017-11-10T05:26:36.250Z,17.83
2017-11-10T05:29:03.712Z,19.02
2017-11-10T05:31:31.948Z,16.80
2017-11-10T05:33:59.412Z,17.83
2017-11-10T05:36:26.898Z,15.02
2017-11-10T05:38:54.376Z,16.42
2017-11-10T05:41:22.628Z,16.62
2017-11-10T05:43:50.093Z,14.85
2017-11-10T05:46:17.578Z,17.80
2017-11-10T05:48:45.044Z,18.62
2017-11-10T05:51:12.542Z,18.48
2017-11-10T05:53:40.003Z,17.55
2017-11-10T05:56:07.488Z,18.42
2017-11-10T05:58:35.730Z,16.58
2017-11-10T06:01:04.674Z,19.85
2017-11-10T06:03:32.153Z,17.73
2017-11-10T06:05:59.628Z,16.25
2017-11-10T06:08:27.096Z,18.50
2017-11-10T06:10:54.585Z,17.98
2017-11-10T06:13:22.821Z,15.20
2017-11-10T06:15:50.286Z,18.70
2017-11-10T06:18:17.761Z,16.60
2017-11-10T06:20:45.253Z,15.50
2017-11-10T06:23:12.733Z,15.77
2017-11-10T06:25:40.198Z,15.82
2017-11-10T06:28:07.664Z,17.70
2017-11-10T06:30:35.143Z,18.52
2017-11-10T06:33:02.616Z,17.80
2017-11-10T06:35:30.083Z,19.25
2017-11-10T06:37:58.321Z,17.08
2017-11-10T06:40:25.793Z,17.33
2017-11-10T06:42:53.265Z,17.92
2017-11-10T06:45:20.729Z,18.85
2017-11-10T06:47:48.965Z,16.85
2017-11-10T06:50:16.429Z,22.05
2017-11-10T06:52:43.901Z,17.90
2017-11-10T06:55:11.364Z,16.95
2017-11-10T06:57:38.892Z,20.62
2017-11-10T07:00:06.357Z,19.25
2017-11-10T07:02:33.852Z,22.55
2017-11-10T07:05:02.087Z,27.55
2017-11-10T07:07:29.560Z,17.55
2017-11-10T07:09:57.017Z,17.42
2017-11-10T07:12:24.537Z,18.37
2017-11-10T07:14:52.009Z,21.92
2017-11-10T07:17:19.622Z,16.50
2017-11-10T07:19:47.853Z,22.67
2017-11-10T07:22:15.324Z,19.15
2017-11-10T07:24:42.785Z,17.50
2017-11-10T07:27:10.250Z,16.87
2017-11-10T07:29:38.105Z,17.17
2017-11-10T07:32:05.575Z,17.83
2017-11-10T07:34:33.072Z,19.42
2017-11-10T07:37:00.558Z,17.27
2017-11-10T07:39:28.023Z,18.02
2017-11-10T07:41:55.498Z,16.98
2017-11-10T07:44:22.970Z,17.85
2017-11-10T07:46:50.437Z,20.55
2017-11-10T07:49:18.709Z,18.58
2017-11-10T07:51:46.205Z,20.05
2017-11-10T07:54:13.673Z,17.70
2017-11-10T07:56:41.249Z,18.95
2017-11-10T07:59:08.737Z,19.80
2017-11-10T08:01:36.194Z,16.95
2017-11-10T08:04:03.673Z,22.73
2017-11-10T08:06:31.905Z,26.55
2017-11-10T08:08:59.381Z,20.37
2017-11-10T08:11:26.929Z,19.80
2017-11-10T08:13:54.421Z,23.25
2017-11-10T08:16:22.666Z,20.27
2017-11-10T08:18:50.137Z,19.37
2017-11-10T08:21:17.613Z,18.02
2017-11-10T08:23:45.854Z,18.83
2017-11-10T08:26:13.317Z,17.52
2017-11-10T08:28:40.785Z,18.60
2017-11-10T08:31:08.250Z,19.58
2017-11-10T08:33:36.495Z,16.83
2017-11-10T08:36:03.965Z,23.87
2017-11-10T08:38:31.425Z,22.48
2017-11-10T08:40:58.892Z,23.52
2017-11-10T08:43:26.410Z,21.92
2017-11-10T08:45:53.889Z,20.37
2017-11-10T08:48:21.372Z,21.17
2017-11-10T08:50:49.647Z,21.10
2017-11-10T08:53:17.117Z,22.23
2017-11-10T08:55:45.353Z,21.45
2017-11-10T08:58:12.812Z,20.80
2017-11-10T09:00:40.290Z,23.05
2017-11-10T09:03:07.746Z,23.85
2017-11-10T09:05:35.981Z,21.98
2017-11-10T09:08:03.445Z,23.85
2017-11-10T09:10:30.914Z,24.42
2017-11-10T09:12:58.385Z,22.15
2017-11-10T09:15:25.924Z,22.17
2017-11-10T09:17:53.385Z,24.58
2017-11-10T09:20:20.910Z,25.40
2017-11-10T09:22:48.383Z,26.08
2017-11-10T09:25:15.848Z,23.42
2017-11-10T09:27:43.321Z,25.05
2017-11-10T09:33:25.236Z,22.17
2017-11-10T09:36:06.570Z,25.30
2017-11-10T09:38:38.581Z,21.87
2017-11-10T09:41:11.749Z,25.48
2017-11-10T09:43:44.900Z,21.33
2017-11-10T09:46:19.166Z,21.30
2017-11-10T09:48:52.337Z,22.58
2017-11-10T09:51:25.473Z,23.60
2017-11-10T09:53:54.766Z,22.13
2017-11-10T09:56:26.201Z,20.12
2017-11-10T09:58:59.497Z,23.40
2017-11-10T10:01:32.735Z,21.37
2017-11-10T10:04:00.966Z,25.35
2017-11-10T10:06:34.094Z,23.35
2017-11-10T10:09:05.312Z,21.30
2017-11-10T10:11:38.439Z,23.12
2017-11-10T10:14:08.286Z,21.35
2017-11-10T10:16:40.361Z,24.60
2017-11-10T10:19:18.508Z,26.20
2017-11-10T10:21:46.033Z,25.45
2017-11-10T10:24:13.501Z,23.40
2017-11-10T10:26:40.965Z,23.60
2017-11-10T10:29:08.440Z,24.20
2017-11-10T10:31:35.905Z,24.92
2017-11-10T10:34:03.382Z,29.25
2017-11-10T10:36:31.613Z,23.45
2017-11-10T10:38:59.089Z,23.25
2017-11-10T10:41:26.569Z,25.67
2017-11-10T10:43:54.810Z,23.62
2017-11-10T10:46:22.297Z,23.00
2017-11-10T10:48:49.750Z,26.05
2017-11-10T10:51:17.218Z,21.10
2017-11-10T10:53:44.689Z,25.73
2017-11-10T10:56:12.921Z,25.85
2017-11-10T10:58:40.418Z,22.75
2017-11-10T11:01:08.644Z,24.35
2017-11-10T11:03:36.129Z,27.70
2017-11-10T11:06:03.591Z,22.05
2017-11-10T11:08:31.065Z,22.92
2017-11-10T11:10:59.325Z,22.85
2017-11-10T11:13:28.302Z,24.67
2017-11-10T11:15:55.777Z,22.13
2017-11-10T11:18:23.240Z,23.23
2017-11-10T11:20:50.721Z,21.17
2017-11-10T11:23:18.957Z,27.58
2017-11-10T11:25:46.433Z,23.85
2017-11-10T11:28:13.905Z,21.65
2017-11-10T11:30:42.149Z,20.35
2017-11-10T11:33:09.608Z,20.00
2017-11-10T11:35:37.078Z,21.17
2017-11-10T11:38:04.544Z,22.60
2017-11-10T11:40:32.013Z,22.00
2017-11-10T11:43:00.245Z,26.55
2017-11-10T11:45:27.714Z,21.95
2017-11-10T11:47:55.185Z,20.05
2017-11-10T11:50:22.652Z,21.73
2017-11-10T11:52:50.117Z,22.75
2017-11-10T11:55:18.369Z,20.62
2017-11-10T11:57:45.834Z,21.95
2017-11-10T12:00:14.114Z,20.75
2017-11-10T12:02:41.642Z,20.33
2017-11-10T12:05:09.146Z,23.62
2017-11-10T12:07:37.425Z,24.52
2017-11-10T12:10:05.663Z,26.48
2017-11-10T12:12:33.140Z,26.55
2017-11-10T12:15:00.622Z,25.73
2017-11-10T12:17:28.856Z,21.98
2017-11-10T12:19:56.320Z,22.40
2017-11-10T12:22:23.805Z,24.65
2017-11-10T12:24:52.039Z,21.42
2017-11-10T12:27:19.510Z,22.75
2017-11-10T12:29:46.977Z,22.15
2017-11-10T12:32:14.449Z,24.02
2017-11-10T12:34:42.676Z,24.02
2017-11-10T12:37:10.147Z,25.65
2017-11-10T12:39:37.620Z,20.83
2017-11-10T12:42:06.607Z,23.35
2017-11-10T12:44:34.076Z,24.10
2017-11-10T12:47:01.555Z,23.85
2017-11-10T12:49:29.041Z,22.48
2017-11-10T12:51:56.517Z,19.67
2017-11-10T12:54:23.990Z,24.40
2017-11-10T12:56:51.461Z,24.40
2017-11-10T12:59:18.926Z,23.50
2017-11-10T13:01:46.393Z,19.92
2017-11-10T13:04:14.661Z,21.75
2017-11-10T13:06:42.113Z,20.48
2017-11-10T13:09:09.588Z,19.98
2017-11-10T13:11:37.817Z,24.80
2017-11-10T13:14:05.289Z,21.70
2017-11-10T13:16:32.766Z,25.67
2017-11-10T13:19:00.241Z,29.42
2017-11-10T13:21:28.478Z,21.92
2017-11-10T13:23:55.957Z,26.37
2017-11-10T13:26:23.420Z,20.90
2017-11-10T13:28:50.893Z,22.25
2017-11-10T13:31:19.129Z,20.10
2017-11-10T13:33:46.608Z,22.55
2017-11-10T13:36:14.090Z,22.40
2017-11-10T13:38:42.327Z,22.98
2017-11-10T13:41:09.793Z,22.35
2017-11-10T13:43:37.271Z,21.20
2017-11-10T13:46:05.514Z,21.08
2017-11-10T13:48:32.985Z,21.85
2017-11-10T13:51:00.477Z,21.05
2017-11-10T13:53:28.731Z,23.90
2017-11-10T13:55:56.985Z,24.67
2017-11-10T13:58:24.558Z,20.02
2017-11-10T14:00:52.026Z,22.58
2017-11-10T14:03:20.261Z,22.25
2017-11-10T14:05:47.749Z,22.00
2017-11-10T14:08:15.220Z,22.45
2017-11-10T14:10:43.460Z,21.37
2017-11-10T14:13:10.922Z,19.85
2017-11-10T14:15:38.394Z,23.83
2017-11-10T14:18:05.874Z,21.20
2017-11-10T14:20:34.125Z,20.52
2017-11-10T14:23:01.633Z,21.98
2017-11-10T14:25:29.109Z,26.10
2017-11-10T14:27:56.570Z,21.12
2017-11-10T14:30:24.046Z,23.00
2017-11-10T14:32:51.543Z,18.52
2017-11-10T14:35:19.772Z,19.80
2017-11-10T14:37:47.243Z,19.52
2017-11-10T14:40:14.725Z,19.25
2017-11-10T14:42:42.953Z,21.55
2017-11-10T14:45:10.442Z,21.95
2017-11-10T14:47:38.682Z,23.75
2017-11-10T14:50:06.178Z,21.15
2017-11-10T14:52:33.646Z,24.17
2017-11-10T14:55:01.874Z,19.02
2017-11-10T14:57:29.342Z,20.25
2017-11-10T14:59:56.801Z,25.58
2017-11-10T15:02:24.275Z,20.52
2017-11-10T15:04:51.737Z,18.52
2017-11-10T15:07:19.225Z,19.85
2017-11-10T15:09:46.694Z,18.12
2017-11-10T15:12:14.169Z,21.90
2017-11-10T15:14:41.648Z,20.95
2017-11-10T15:17:09.121Z,19.73
2017-11-10T15:19:36.586Z,19.87
2017-11-10T15:22:04.058Z,20.92
2017-11-10T15:24:32.285Z,22.17
2017-11-10T15:26:59.761Z,21.10
2017-11-10T15:29:27.225Z,22.77
2017-11-10T15:31:54.701Z,19.98
2017-11-10T15:34:22.930Z,21.33
2017-11-10T15:36:50.400Z,21.20
2017-11-10T15:39:17.865Z,22.77
2017-11-10T15:41:45.353Z,22.87
2017-11-10T15:44:13.582Z,19.80
2017-11-10T15:46:41.049Z,20.95
2017-11-10T15:49:08.534Z,19.27
2017-11-10T15:51:36.784Z,19.35
2017-11-10T15:54:04.274Z,21.50
2017-11-10T15:56:32.509Z,21.10
2017-11-10T15:59:00.009Z,24.45
2017-11-10T16:01:28.239Z,20.50
2017-11-10T16:03:55.706Z,23.27
2017-11-10T16:06:23.178Z,21.45
2017-11-10T16:08:50.663Z,21.65
2017-11-10T16:11:18.889Z,23.00
2017-11-10T16:13:46.407Z,21.37
2017-11-10T16:16:13.893Z,20.45
2017-11-10T16:18:41.376Z,20.52
2017-11-10T16:21:08.845Z,20.75
2017-11-10T16:23:36.318Z,24.12
2017-11-10T16:26:04.545Z,20.83
2017-11-10T16:28:32.017Z,18.45
2017-11-10T16:30:59.477Z,18.70
2017-11-10T16:33:26.948Z,21.67
2017-11-10T16:35:54.425Z,21.48
2017-11-10T16:38:21.904Z,17.87
2017-11-10T16:40:49.385Z,22.27
2017-11-10T16:43:16.865Z,23.35
2017-11-10T16:45:44.385Z,18.65
2017-11-10T16:48:11.861Z,16.12
2017-11-10T16:50:39.326Z,16.02
2017-11-10T16:53:06.821Z,20.77
2017-11-10T16:55:34.299Z,19.80
2017-11-10T16:58:02.541Z,18.48
2017-11-10T17:00:30.012Z,19.75
2017-11-10T17:02:57.477Z,18.40
2017-11-10T17:05:24.949Z,16.42
2017-11-10T17:07:53.201Z,14.43
2017-11-10T17:10:20.669Z,14.13
2017-11-10T17:12:48.916Z,15.07
2017-11-10T17:15:16.472Z,15.40
2017-11-10T17:17:43.933Z,14.68
2017-11-10T17:20:11.396Z,13.88
2017-11-10T17:22:38.858Z,14.00
2017-11-10T17:25:06.355Z,10.77
2017-11-10T17:27:34.585Z,16.02
2017-11-10T17:30:02.056Z,10.05
2017-11-10T17:32:29.508Z,11.15
2017-11-10T17:34:56.973Z,11.63
2017-11-10T17:37:24.438Z,11.15
2017-11-10T17:39:51.921Z,11.05
2017-11-10T17:42:19.385Z,12.55
2017-11-10T17:44:46.869Z,10.48
2017-11-10T17:47:14.337Z,13.35
2017-11-10T17:49:41.806Z,9.82
2017-11-10T17:52:09.265Z,9.85
2017-11-10T17:54:36.737Z,9.73
2017-11-10T17:57:04.208Z,8.90
2017-11-10T17:59:32.441Z,8.75
2017-11-10T18:01:59.908Z,7.72
2017-11-10T18:04:27.370Z,9.40
2017-11-10T18:06:54.864Z,10.57
2017-11-10T18:09:23.090Z,8.18
2017-11-10T18:11:50.553Z,7.57
2017-11-10T18:14:18.029Z,8.88
2017-11-10T18:16:45.488Z,8.90
2017-11-10T18:19:12.944Z,10.02
2017-11-10T18:21:40.413Z,7.80
2017-11-10T18:24:08.641Z,7.68
2017-11-10T18:26:36.142Z,6.10
2017-11-10T18:29:03.601Z,7.10
2017-11-10T18:31:31.837Z,9.55
2017-11-10T18:33:59.309Z,9.02
2017-11-10T18:36:26.776Z,7.53
2017-11-10T18:38:54.233Z,9.43
2017-11-10T18:41:21.700Z,7.68
2017-11-10T18:43:49.153Z,6.35
2017-11-10T18:46:16.633Z,6.82
2017-11-10T18:48:45.763Z,7.03
2017-11-10T18:51:13.260Z,10.55
2017-11-10T18:53:41.516Z,7.68
2017-11-10T18:56:08.977Z,6.80
2017-11-10T18:58:36.433Z,6.07
2017-11-10T19:01:03.929Z,6.22
2017-11-10T19:03:32.152Z,6.03
2017-11-10T19:05:59.620Z,7.03
2017-11-10T19:08:27.086Z,5.85
2017-11-10T19:10:54.537Z,8.70
2017-11-10T19:13:22.001Z,5.97
2017-11-10T19:15:49.457Z,7.15
2017-11-10T19:18:16.930Z,4.50
2017-11-10T19:20:45.189Z,5.90
2017-11-10T19:23:12.922Z,6.60
2017-11-10T19:25:40.397Z,3.85
2017-11-10T19:28:07.865Z,5.03
2017-11-10T19:30:35.334Z,4.15
2017-11-10T19:33:02.801Z,4.60
2017-11-10T19:35:30.250Z,5.78
2017-11-10T19:37:57.721Z,4.95
2017-11-10T19:40:25.176Z,5.68
2017-11-10T19:42:52.665Z,4.65
2017-11-10T19:45:20.138Z,6.93
2017-11-10T19:47:47.599Z,4.20
2017-11-10T19:50:15.066Z,6.15
2017-11-10T19:52:42.533Z,5.00
2017-11-10T19:55:09.999Z,4.65
2017-11-10T19:57:37.458Z,6.60
2017-11-10T20:00:04.917Z,4.75
2017-11-10T20:02:32.392Z,5.78
2017-11-10T20:04:59.874Z,6.47
2017-11-10T20:07:28.102Z,4.30
2017-11-10T20:09:55.569Z,4.47
2017-11-10T20:12:23.033Z,4.20
2017-11-10T20:14:50.501Z,3.35
2017-11-10T20:17:17.961Z,4.97
2017-11-10T20:19:45.434Z,3.35
2017-11-10T20:22:13.665Z,3.87
2017-11-10T20:24:41.136Z,7.12
2017-11-10T20:27:08.597Z,5.93
2017-11-10T20:29:36.065Z,4.53
2017-11-10T20:32:04.297Z,5.07
2017-11-10T20:34:31.776Z,5.35
2017-11-10T20:36:59.241Z,4.50
2017-11-10T20:39:26.701Z,4.85
2017-11-10T20:41:54.170Z,6.28
2017-11-10T20:44:21.634Z,4.95
2017-11-10T20:46:49.853Z,4.82
2017-11-10T20:49:17.606Z,5.45
2017-11-10T20:51:45.413Z,4.55
2017-11-10T20:54:12.888Z,4.95
2017-11-10T20:56:40.357Z,5.45
2017-11-10T20:59:07.823Z,4.30
2017-11-10T21:01:36.081Z,4.75
2017-11-10T21:04:03.590Z,4.78
2017-11-10T21:06:31.049Z,4.18
2017-11-10T21:08:58.613Z,5.65
2017-11-10T21:11:26.068Z,5.30
2017-11-10T21:13:53.549Z,3.65
2017-11-10T21:16:21.006Z,9.07
2017-11-10T21:18:48.516Z,4.85
2017-11-10T21:21:16.753Z,4.53
2017-11-10T21:23:44.218Z,7.10
2017-11-10T21:26:11.673Z,5.53
2017-11-10T21:28:39.238Z,5.53
2017-11-10T21:31:06.745Z,7.22
2017-11-10T21:33:34.227Z,4.47
2017-11-10T21:36:01.700Z,4.68
2017-11-10T21:38:29.209Z,4.35
2017-11-10T21:40:56.672Z,4.57
2017-11-10T21:43:24.152Z,4.32
2017-11-10T21:45:51.620Z,3.70
2017-11-10T21:48:19.087Z,4.55
2017-11-10T21:50:46.565Z,3.50
2017-11-10T21:53:14.024Z,4.25
2017-11-10T21:55:41.484Z,6.40
2017-11-10T21:58:09.032Z,5.05
2017-11-10T22:00:36.497Z,3.70
2017-11-10T22:03:04.016Z,4.90
2017-11-10T22:05:31.480Z,3.55
2017-11-10T22:07:58.949Z,4.00
2017-11-10T22:10:26.411Z,3.92
2017-11-10T22:12:53.878Z,4.20
2017-11-10T22:15:21.345Z,3.40
2017-11-10T22:17:48.825Z,3.58
2017-11-10T22:20:17.061Z,3.58
2017-11-10T22:22:44.525Z,3.37
2017-11-10T22:25:12.017Z,3.42
2017-11-10T22:27:40.248Z,5.57
2017-11-10T22:30:07.714Z,4.47
2017-11-10T22:32:35.169Z,2.92
2017-11-10T22:35:02.646Z,3.37
2017-11-10T22:37:30.112Z,3.67
2017-11-10T22:39:57.582Z,3.37
2017-11-10T22:42:25.800Z,3.62
2017-11-10T22:44:53.270Z,3.78
2017-11-10T22:47:20.735Z,4.40
2017-11-10T22:49:48.217Z,3.35
2017-11-10T22:52:15.691Z,3.83
2017-11-10T22:54:43.936Z,3.53
2017-11-10T22:57:11.394Z,4.45
2017-11-10T22:59:38.862Z,4.35
2017-11-10T23:02:06.341Z,4.00
2017-11-10T23:04:34.664Z,4.90
2017-11-10T23:07:02.117Z,5.18
2017-11-10T23:09:29.597Z,4.10
2017-11-10T23:11:57.075Z,4.70
2017-11-10T23:14:24.539Z,5.05
2017-11-10T23:16:52.005Z,5.37
2017-11-10T23:19:20.264Z,5.30
2017-11-10T23:21:47.734Z,5.20
2017-11-10T23:24:15.422Z,5.62
2017-11-10T23:26:43.657Z,5.90
2017-11-10T23:29:11.116Z,5.55
2017-11-10T23:31:38.639Z,6.20
2017-11-10T23:34:06.098Z,6.90
2017-11-10T23:36:33.561Z,6.53
2017-11-10T23:39:01.017Z,7.25
2017-11-10T23:41:28.476Z,6.97
2017-11-10T23:43:55.980Z,7.93
2017-11-10T23:46:23.448Z,7.15
2017-11-10T23:48:50.921Z,8.45
2017-11-10T23:51:19.148Z,6.80
2017-11-10T23:53:46.614Z,7.12
2017-11-10T23:56:14.097Z,7.90
2017-11-10T23:58:41.582Z,7.97
